Weather at Stockholm-Arlanda Airport

Public forecast

Using degrees Celsius for public forecast. Weather courtesy of forecast.io.

Current aviation weather report (METAR) for Stockholm-Arlanda Airport

2022/12/04 03:50 (retrieved 37 minutes ago)

ESSA 040350Z 36004KT 9999 BKN022 M01/M02 Q1033 NOSIG

Closest aviation forecast (TAF) to Stockholm-Arlanda Airport

Closest forecast is Dortmund Airport, 599.2 nm (1,109.7 km) SW.

2022/12/03 22:54 (retrieved 6 hours ago)

TAF TAF EDLW 032250Z 0322/0418 CNL